sensor_id;sensor_type;location;lat;lon;timestamp;P1;P2;P0
45351;PMS7003;31086;51.702;-1.106;2022-07-29T00:01:15;3;2;
45351;PMS7003;31086;51.702;-1.106;2022-07-29T00:03:43;0;0;
45351;PMS7003;31086;51.702;-1.106;2022-07-29T00:06:10;3;2;
45351;PMS7003;31086;51.702;-1.106;2022-07-29T00:08:38;2;1;
45351;PMS7003;31086;51.702;-1.106;2022-07-29T00:11:05;2;2;
45351;PMS7003;31086;51.702;-1.106;2022-07-29T00:13:32;3;1;
45351;PMS7003;31086;51.702;-1.106;2022-07-29T00:15:59;1;1;
45351;PMS7003;31086;51.702;-1.106;2022-07-29T00:18:26;2;1;
45351;PMS7003;31086;51.702;-1.106;2022-07-29T00:20:54;4;1;
45351;PMS7003;31086;51.702;-1.106;2022-07-29T00:23:21;3;1;
45351;PMS7003;31086;51.702;-1.106;2022-07-29T00:25:49;2;1;
45351;PMS7003;31086;51.702;-1.106;2022-07-29T00:28:16;1;0;
45351;PMS7003;31086;51.702;-1.106;2022-07-29T00:30:43;3;1;
45351;PMS7003;31086;51.702;-1.106;2022-07-29T00:33:10;2;1;
45351;PMS7003;31086;51.702;-1.106;2022-07-29T00:35:37;2;1;
45351;PMS7003;31086;51.702;-1.106;2022-07-29T00:38:04;1;1;
45351;PMS7003;31086;51.702;-1.106;2022-07-29T00:40:32;3;2;
45351;PMS7003;31086;51.702;-1.106;2022-07-29T00:42:59;1;1;
45351;PMS7003;31086;51.702;-1.106;2022-07-29T00:45:26;3;1;
45351;PMS7003;31086;51.702;-1.106;2022-07-29T00:47:53;2;1;
45351;PMS7003;31086;51.702;-1.106;2022-07-29T00:50:21;1;1;
45351;PMS7003;31086;51.702;-1.106;2022-07-29T00:52:49;1;1;
45351;PMS7003;31086;51.702;-1.106;2022-07-29T00:55:19;3;1;
45351;PMS7003;31086;51.702;-1.106;2022-07-29T00:57:46;3;1;
45351;PMS7003;31086;51.702;-1.106;2022-07-29T01:00:14;2;1;
45351;PMS7003;31086;51.702;-1.106;2022-07-29T01:02:45;1;1;
45351;PMS7003;31086;51.702;-1.106;2022-07-29T01:05:13;2;1;
45351;PMS7003;31086;51.702;-1.106;2022-07-29T01:07:43;1;1;
45351;PMS7003;31086;51.702;-1.106;2022-07-29T01:10:13;2;1;
45351;PMS7003;31086;51.702;-1.106;2022-07-29T01:12:42;3;2;
45351;PMS7003;31086;51.702;-1.106;2022-07-29T01:15:13;1;1;
45351;PMS7003;31086;51.702;-1.106;2022-07-29T01:17:42;1;1;
45351;PMS7003;31086;51.702;-1.106;2022-07-29T01:20:13;1;1;
45351;PMS7003;31086;51.702;-1.106;2022-07-29T01:22:56;2;1;
45351;PMS7003;31086;51.702;-1.106;2022-07-29T01:25:56;1;1;
45351;PMS7003;31086;51.702;-1.106;2022-07-29T01:28:36;3;1;
45351;PMS7003;31086;51.702;-1.106;2022-07-29T01:31:11;2;2;
45351;PMS7003;31086;51.702;-1.106;2022-07-29T01:33:43;3;1;
45351;PMS7003;31086;51.702;-1.106;2022-07-29T01:36:17;2;1;
45351;PMS7003;31086;51.702;-1.106;2022-07-29T01:38:53;4;2;
45351;PMS7003;31086;51.702;-1.106;2022-07-29T01:41:25;1;1;
45351;PMS7003;31086;51.702;-1.106;2022-07-29T01:43:59;3;2;
45351;PMS7003;31086;51.702;-1.106;2022-07-29T01:46:35;6;4;
45351;PMS7003;31086;51.702;-1.106;2022-07-29T01:49:06;1;1;
45351;PMS7003;31086;51.702;-1.106;2022-07-29T01:51:40;2;1;
45351;PMS7003;31086;51.702;-1.106;2022-07-29T01:54:12;3;1;
45351;PMS7003;31086;51.702;-1.106;2022-07-29T01:56:43;2;2;
45351;PMS7003;31086;51.702;-1.106;2022-07-29T01:59:13;2;2;
45351;PMS7003;31086;51.702;-1.106;2022-07-29T02:01:43;3;3;
45351;PMS7003;31086;51.702;-1.106;2022-07-29T02:04:13;3;1;
45351;PMS7003;31086;51.702;-1.106;2022-07-29T02:06:43;2;1;
45351;PMS7003;31086;51.702;-1.106;2022-07-29T02:09:12;1;1;
45351;PMS7003;31086;51.702;-1.106;2022-07-29T02:11:43;2;2;
45351;PMS7003;31086;51.702;-1.106;2022-07-29T02:14:15;3;2;
45351;PMS7003;31086;51.702;-1.106;2022-07-29T02:16:45;2;2;
45351;PMS7003;31086;51.702;-1.106;2022-07-29T02:19:15;2;1;
45351;PMS7003;31086;51.702;-1.106;2022-07-29T02:21:45;1;1;
45351;PMS7003;31086;51.702;-1.106;2022-07-29T02:24:14;2;2;
45351;PMS7003;31086;51.702;-1.106;2022-07-29T02:26:43;2;2;
45351;PMS7003;31086;51.702;-1.106;2022-07-29T02:29:12;2;1;
45351;PMS7003;31086;51.702;-1.106;2022-07-29T02:31:40;2;2;
45351;PMS7003;31086;51.702;-1.106;2022-07-29T02:34:10;2;1;
45351;PMS7003;31086;51.702;-1.106;2022-07-29T02:36:38;2;2;
45351;PMS7003;31086;51.702;-1.106;2022-07-29T02:39:07;2;2;
45351;PMS7003;31086;51.702;-1.106;2022-07-29T02:41:37;3;2;
45351;PMS7003;31086;51.702;-1.106;2022-07-29T02:44:09;3;2;
45351;PMS7003;31086;51.702;-1.106;2022-07-29T02:46:42;3;2;
45351;PMS7003;31086;51.702;-1.106;2022-07-29T02:49:15;2;2;
45351;PMS7003;31086;51.702;-1.106;2022-07-29T02:51:52;4;3;
45351;PMS7003;31086;51.702;-1.106;2022-07-29T02:54:27;3;2;
45351;PMS7003;31086;51.702;-1.106;2022-07-29T02:57:06;2;2;
45351;PMS7003;31086;51.702;-1.106;2022-07-29T02:59:37;5;1;
45351;PMS7003;31086;51.702;-1.106;2022-07-29T03:02:08;5;3;
45351;PMS7003;31086;51.702;-1.106;2022-07-29T03:04:38;2;2;
45351;PMS7003;31086;51.702;-1.106;2022-07-29T03:07:07;4;3;
45351;PMS7003;31086;51.702;-1.106;2022-07-29T03:09:37;5;1;
45351;PMS7003;31086;51.702;-1.106;2022-07-29T03:12:05;3;2;
45351;PMS7003;31086;51.702;-1.106;2022-07-29T03:14:33;4;2;
45351;PMS7003;31086;51.702;-1.106;2022-07-29T03:17:02;2;2;
45351;PMS7003;31086;51.702;-1.106;2022-07-29T03:19:29;1;1;
45351;PMS7003;31086;51.702;-1.106;2022-07-29T03:21:57;3;2;
45351;PMS7003;31086;51.702;-1.106;2022-07-29T03:24:26;2;2;
45351;PMS7003;31086;51.702;-1.106;2022-07-29T03:26:55;2;1;
45351;PMS7003;31086;51.702;-1.106;2022-07-29T03:29:23;1;1;
45351;PMS7003;31086;51.702;-1.106;2022-07-29T03:31:51;4;2;
45351;PMS7003;31086;51.702;-1.106;2022-07-29T03:34:19;3;2;
45351;PMS7003;31086;51.702;-1.106;2022-07-29T03:36:46;3;2;
45351;PMS7003;31086;51.702;-1.106;2022-07-29T03:39:14;3;2;
45351;PMS7003;31086;51.702;-1.106;2022-07-29T03:41:44;2;2;
45351;PMS7003;31086;51.702;-1.106;2022-07-29T03:44:15;2;1;
45351;PMS7003;31086;51.702;-1.106;2022-07-29T03:46:44;4;3;
45351;PMS7003;31086;51.702;-1.106;2022-07-29T03:49:14;2;2;
45351;PMS7003;31086;51.702;-1.106;2022-07-29T03:51:42;3;1;
45351;PMS7003;31086;51.702;-1.106;2022-07-29T03:54:09;3;2;
45351;PMS7003;31086;51.702;-1.106;2022-07-29T03:56:38;4;2;
45351;PMS7003;31086;51.702;-1.106;2022-07-29T03:59:08;3;2;
45351;PMS7003;31086;51.702;-1.106;2022-07-29T04:01:38;2;2;
45351;PMS7003;31086;51.702;-1.106;2022-07-29T04:04:05;3;2;
45351;PMS7003;31086;51.702;-1.106;2022-07-29T04:06:37;4;2;
45351;PMS7003;31086;51.702;-1.106;2022-07-29T04:09:05;3;3;
45351;PMS7003;31086;51.702;-1.106;2022-07-29T04:11:32;2;1;
45351;PMS7003;31086;51.702;-1.106;2022-07-29T04:14:00;2;2;
45351;PMS7003;31086;51.702;-1.106;2022-07-29T04:16:27;3;2;
45351;PMS7003;31086;51.702;-1.106;2022-07-29T04:18:54;2;2;
45351;PMS7003;31086;51.702;-1.106;2022-07-29T04:21:21;3;2;
45351;PMS7003;31086;51.702;-1.106;2022-07-29T04:23:49;4;2;
45351;PMS7003;31086;51.702;-1.106;2022-07-29T04:26:17;2;2;
45351;PMS7003;31086;51.702;-1.106;2022-07-29T04:28:45;3;3;
45351;PMS7003;31086;51.702;-1.106;2022-07-29T04:31:13;4;2;
45351;PMS7003;31086;51.702;-1.106;2022-07-29T04:33:40;3;3;
45351;PMS7003;31086;51.702;-1.106;2022-07-29T04:36:07;4;2;
45351;PMS7003;31086;51.702;-1.106;2022-07-29T04:38:34;2;2;
45351;PMS7003;31086;51.702;-1.106;2022-07-29T04:41:01;2;2;
45351;PMS7003;31086;51.702;-1.106;2022-07-29T04:43:28;4;2;
45351;PMS7003;31086;51.702;-1.106;2022-07-29T04:45:55;3;2;
45351;PMS7003;31086;51.702;-1.106;2022-07-29T04:48:23;1;1;
45351;PMS7003;31086;51.702;-1.106;2022-07-29T04:50:50;5;3;
45351;PMS7003;31086;51.702;-1.106;2022-07-29T04:53:17;4;3;
45351;PMS7003;31086;51.702;-1.106;2022-07-29T04:55:44;5;3;
45351;PMS7003;31086;51.702;-1.106;2022-07-29T04:58:11;4;3;
45351;PMS7003;31086;51.702;-1.106;2022-07-29T05:00:39;3;3;
45351;PMS7003;31086;51.702;-1.106;2022-07-29T05:03:06;5;2;
45351;PMS7003;31086;51.702;-1.106;2022-07-29T05:05:34;5;2;
45351;PMS7003;31086;51.702;-1.106;2022-07-29T05:08:01;4;2;
45351;PMS7003;31086;51.702;-1.106;2022-07-29T05:10:30;4;2;
45351;PMS7003;31086;51.702;-1.106;2022-07-29T05:12:57;7;3;
45351;PMS7003;31086;51.702;-1.106;2022-07-29T05:15:25;3;2;
45351;PMS7003;31086;51.702;-1.106;2022-07-29T05:17:52;5;3;
45351;PMS7003;31086;51.702;-1.106;2022-07-29T05:20:20;3;2;
45351;PMS7003;31086;51.702;-1.106;2022-07-29T05:22:47;6;3;
45351;PMS7003;31086;51.702;-1.106;2022-07-29T05:25:14;3;3;
45351;PMS7003;31086;51.702;-1.106;2022-07-29T05:27:41;3;3;
45351;PMS7003;31086;51.702;-1.106;2022-07-29T05:30:09;4;2;
45351;PMS7003;31086;51.702;-1.106;2022-07-29T05:32:36;3;2;
45351;PMS7003;31086;51.702;-1.106;2022-07-29T05:35:04;3;2;
45351;PMS7003;31086;51.702;-1.106;2022-07-29T05:37:32;5;2;
45351;PMS7003;31086;51.702;-1.106;2022-07-29T05:40:00;2;2;
45351;PMS7003;31086;51.702;-1.106;2022-07-29T05:42:28;3;2;
45351;PMS7003;31086;51.702;-1.106;2022-07-29T05:44:55;3;2;
45351;PMS7003;31086;51.702;-1.106;2022-07-29T05:47:22;3;2;
45351;PMS7003;31086;51.702;-1.106;2022-07-29T05:49:50;3;3;
45351;PMS7003;31086;51.702;-1.106;2022-07-29T05:52:18;2;2;
45351;PMS7003;31086;51.702;-1.106;2022-07-29T05:54:45;3;2;
45351;PMS7003;31086;51.702;-1.106;2022-07-29T05:57:15;3;2;
45351;PMS7003;31086;51.702;-1.106;2022-07-29T05:59:42;3;2;
45351;PMS7003;31086;51.702;-1.106;2022-07-29T06:02:09;5;2;
45351;PMS7003;31086;51.702;-1.106;2022-07-29T06:04:36;4;2;
45351;PMS7003;31086;51.702;-1.106;2022-07-29T06:07:04;3;1;
45351;PMS7003;31086;51.702;-1.106;2022-07-29T06:09:32;2;2;
45351;PMS7003;31086;51.702;-1.106;2022-07-29T06:12:00;2;2;
45351;PMS7003;31086;51.702;-1.106;2022-07-29T06:14:27;3;2;
45351;PMS7003;31086;51.702;-1.106;2022-07-29T06:16:54;4;2;
45351;PMS7003;31086;51.702;-1.106;2022-07-29T06:19:22;3;2;
45351;PMS7003;31086;51.702;-1.106;2022-07-29T06:21:49;2;1;
45351;PMS7003;31086;51.702;-1.106;2022-07-29T06:24:16;4;3;
45351;PMS7003;31086;51.702;-1.106;2022-07-29T06:26:44;5;3;
45351;PMS7003;31086;51.702;-1.106;2022-07-29T06:29:11;4;3;
45351;PMS7003;31086;51.702;-1.106;2022-07-29T06:31:38;2;2;
45351;PMS7003;31086;51.702;-1.106;2022-07-29T06:34:05;6;2;
45351;PMS7003;31086;51.702;-1.106;2022-07-29T06:36:34;3;3;
45351;PMS7003;31086;51.702;-1.106;2022-07-29T06:39:03;2;2;
45351;PMS7003;31086;51.702;-1.106;2022-07-29T06:41:32;3;2;
45351;PMS7003;31086;51.702;-1.106;2022-07-29T06:43:59;3;2;
45351;PMS7003;31086;51.702;-1.106;2022-07-29T06:46:27;3;3;
45351;PMS7003;31086;51.702;-1.106;2022-07-29T06:48:54;4;2;
45351;PMS7003;31086;51.702;-1.106;2022-07-29T06:51:21;2;2;
45351;PMS7003;31086;51.702;-1.106;2022-07-29T06:53:49;4;2;
45351;PMS7003;31086;51.702;-1.106;2022-07-29T06:56:18;3;2;
45351;PMS7003;31086;51.702;-1.106;2022-07-29T06:58:45;2;2;
45351;PMS7003;31086;51.702;-1.106;2022-07-29T07:01:12;3;2;
45351;PMS7003;31086;51.702;-1.106;2022-07-29T07:03:39;4;2;
45351;PMS7003;31086;51.702;-1.106;2022-07-29T07:06:07;6;5;
45351;PMS7003;31086;51.702;-1.106;2022-07-29T07:08:34;4;2;
45351;PMS7003;31086;51.702;-1.106;2022-07-29T07:11:01;4;2;
45351;PMS7003;31086;51.702;-1.106;2022-07-29T07:13:28;2;1;
45351;PMS7003;31086;51.702;-1.106;2022-07-29T07:15:56;4;2;
45351;PMS7003;31086;51.702;-1.106;2022-07-29T07:18:23;2;1;
45351;PMS7003;31086;51.702;-1.106;2022-07-29T07:20:50;2;2;
45351;PMS7003;31086;51.702;-1.106;2022-07-29T07:23:17;3;2;
45351;PMS7003;31086;51.702;-1.106;2022-07-29T07:25:44;3;1;
45351;PMS7003;31086;51.702;-1.106;2022-07-29T07:28:11;2;2;
45351;PMS7003;31086;51.702;-1.106;2022-07-29T07:30:39;4;1;
45351;PMS7003;31086;51.702;-1.106;2022-07-29T07:33:06;1;1;
45351;PMS7003;31086;51.702;-1.106;2022-07-29T07:35:33;4;2;
45351;PMS7003;31086;51.702;-1.106;2022-07-29T07:38:00;3;3;
45351;PMS7003;31086;51.702;-1.106;2022-07-29T07:40:28;3;2;
45351;PMS7003;31086;51.702;-1.106;2022-07-29T07:42:55;4;3;
45351;PMS7003;31086;51.702;-1.106;2022-07-29T07:45:22;3;3;
45351;PMS7003;31086;51.702;-1.106;2022-07-29T07:47:49;2;2;
45351;PMS7003;31086;51.702;-1.106;2022-07-29T07:50:16;2;1;
45351;PMS7003;31086;51.702;-1.106;2022-07-29T07:52:47;6;2;
45351;PMS7003;31086;51.702;-1.106;2022-07-29T07:55:16;3;2;
45351;PMS7003;31086;51.702;-1.106;2022-07-29T07:57:44;1;1;
45351;PMS7003;31086;51.702;-1.106;2022-07-29T08:00:13;4;2;
45351;PMS7003;31086;51.702;-1.106;2022-07-29T08:02:41;1;1;
45351;PMS7003;31086;51.702;-1.106;2022-07-29T08:05:08;2;2;
45351;PMS7003;31086;51.702;-1.106;2022-07-29T08:07:36;2;2;
45351;PMS7003;31086;51.702;-1.106;2022-07-29T08:10:03;2;1;
45351;PMS7003;31086;51.702;-1.106;2022-07-29T08:12:32;4;3;
45351;PMS7003;31086;51.702;-1.106;2022-07-29T08:14:59;1;0;
45351;PMS7003;31086;51.702;-1.106;2022-07-29T08:17:26;3;2;
45351;PMS7003;31086;51.702;-1.106;2022-07-29T08:19:53;0;0;
45351;PMS7003;31086;51.702;-1.106;2022-07-29T08:22:20;1;1;
45351;PMS7003;31086;51.702;-1.106;2022-07-29T08:24:47;0;0;
45351;PMS7003;31086;51.702;-1.106;2022-07-29T08:27:14;2;1;
45351;PMS7003;31086;51.702;-1.106;2022-07-29T08:29:41;1;1;
45351;PMS7003;31086;51.702;-1.106;2022-07-29T08:32:09;1;1;
45351;PMS7003;31086;51.702;-1.106;2022-07-29T08:34:36;1;0;
45351;PMS7003;31086;51.702;-1.106;2022-07-29T08:37:03;0;0;
45351;PMS7003;31086;51.702;-1.106;2022-07-29T08:39:30;1;1;
45351;PMS7003;31086;51.702;-1.106;2022-07-29T08:41:58;0;0;
45351;PMS7003;31086;51.702;-1.106;2022-07-29T08:44:25;0;0;
45351;PMS7003;31086;51.702;-1.106;2022-07-29T08:46:52;1;1;
45351;PMS7003;31086;51.702;-1.106;2022-07-29T08:49:19;3;1;
45351;PMS7003;31086;51.702;-1.106;2022-07-29T08:51:46;0;0;
45351;PMS7003;31086;51.702;-1.106;2022-07-29T08:54:16;3;1;
45351;PMS7003;31086;51.702;-1.106;2022-07-29T08:56:45;0;0;
45351;PMS7003;31086;51.702;-1.106;2022-07-29T08:59:16;1;1;
45351;PMS7003;31086;51.702;-1.106;2022-07-29T09:01:45;0;0;
45351;PMS7003;31086;51.702;-1.106;2022-07-29T09:04:14;1;0;
45351;PMS7003;31086;51.702;-1.106;2022-07-29T09:06:43;0;0;
45351;PMS7003;31086;51.702;-1.106;2022-07-29T09:09:12;1;1;
45351;PMS7003;31086;51.702;-1.106;2022-07-29T09:11:40;0;0;
45351;PMS7003;31086;51.702;-1.106;2022-07-29T09:14:08;0;0;
45351;PMS7003;31086;51.702;-1.106;2022-07-29T09:16:44;1;1;
45351;PMS7003;31086;51.702;-1.106;2022-07-29T09:19:24;2;1;
45351;PMS7003;31086;51.702;-1.106;2022-07-29T09:21:53;2;1;
45351;PMS7003;31086;51.702;-1.106;2022-07-29T09:24:21;2;1;
45351;PMS7003;31086;51.702;-1.106;2022-07-29T09:26:48;2;1;
45351;PMS7003;31086;51.702;-1.106;2022-07-29T09:29:16;1;0;
45351;PMS7003;31086;51.702;-1.106;2022-07-29T09:31:45;1;1;
45351;PMS7003;31086;51.702;-1.106;2022-07-29T09:34:14;1;1;
45351;PMS7003;31086;51.702;-1.106;2022-07-29T09:36:42;0;0;
45351;PMS7003;31086;51.702;-1.106;2022-07-29T09:39:11;1;0;
45351;PMS7003;31086;51.702;-1.106;2022-07-29T09:41:48;1;1;
45351;PMS7003;31086;51.702;-1.106;2022-07-29T09:44:16;0;0;
45351;PMS7003;31086;51.702;-1.106;2022-07-29T09:47:00;0;0;
45351;PMS7003;31086;51.702;-1.106;2022-07-29T09:49:29;0;0;
45351;PMS7003;31086;51.702;-1.106;2022-07-29T09:52:00;0;0;
45351;PMS7003;31086;51.702;-1.106;2022-07-29T09:54:30;2;0;
45351;PMS7003;31086;51.702;-1.106;2022-07-29T09:56:58;1;1;
45351;PMS7003;31086;51.702;-1.106;2022-07-29T09:59:25;0;0;
45351;PMS7003;31086;51.702;-1.106;2022-07-29T10:01:52;2;0;
45351;PMS7003;31086;51.702;-1.106;2022-07-29T10:04:19;1;0;
45351;PMS7003;31086;51.702;-1.106;2022-07-29T10:07:02;0;0;
45351;PMS7003;31086;51.702;-1.106;2022-07-29T10:09:30;0;0;
45351;PMS7003;31086;51.702;-1.106;2022-07-29T10:12:06;1;1;
45351;PMS7003;31086;51.702;-1.106;2022-07-29T10:14:35;1;0;
45351;PMS7003;31086;51.702;-1.106;2022-07-29T10:17:04;1;0;
45351;PMS7003;31086;51.702;-1.106;2022-07-29T10:19:34;1;1;
45351;PMS7003;31086;51.702;-1.106;2022-07-29T10:22:03;3;1;
45351;PMS7003;31086;51.702;-1.106;2022-07-29T10:24:32;1;1;
45351;PMS7003;31086;51.702;-1.106;2022-07-29T10:27:00;1;1;
45351;PMS7003;31086;51.702;-1.106;2022-07-29T10:29:29;2;1;
45351;PMS7003;31086;51.702;-1.106;2022-07-29T10:32:02;0;0;
45351;PMS7003;31086;51.702;-1.106;2022-07-29T10:34:45;2;1;
45351;PMS7003;31086;51.702;-1.106;2022-07-29T10:38:06;3;2;
45351;PMS7003;31086;51.702;-1.106;2022-07-29T10:40:49;1;1;
45351;PMS7003;31086;51.702;-1.106;2022-07-29T10:43:22;2;1;
45351;PMS7003;31086;51.702;-1.106;2022-07-29T10:45:55;2;1;
45351;PMS7003;31086;51.702;-1.106;2022-07-29T10:48:23;2;1;
45351;PMS7003;31086;51.702;-1.106;2022-07-29T10:50:52;0;0;
45351;PMS7003;31086;51.702;-1.106;2022-07-29T10:53:21;3;2;
45351;PMS7003;31086;51.702;-1.106;2022-07-29T10:55:48;1;1;
45351;PMS7003;31086;51.702;-1.106;2022-07-29T10:58:17;1;0;
45351;PMS7003;31086;51.702;-1.106;2022-07-29T11:00:46;2;1;
45351;PMS7003;31086;51.702;-1.106;2022-07-29T11:03:49;2;2;
45351;PMS7003;31086;51.702;-1.106;2022-07-29T11:06:16;3;2;
45351;PMS7003;31086;51.702;-1.106;2022-07-29T11:08:44;3;1;
45351;PMS7003;31086;51.702;-1.106;2022-07-29T11:11:43;2;1;
45351;PMS7003;31086;51.702;-1.106;2022-07-29T11:14:11;3;1;
45351;PMS7003;31086;51.702;-1.106;2022-07-29T11:17:10;2;1;
45351;PMS7003;31086;51.702;-1.106;2022-07-29T11:19:37;2;2;
45351;PMS7003;31086;51.702;-1.106;2022-07-29T11:22:04;5;4;
45351;PMS7003;31086;51.702;-1.106;2022-07-29T11:24:35;2;2;
45351;PMS7003;31086;51.702;-1.106;2022-07-29T11:27:10;1;1;
45351;PMS7003;31086;51.702;-1.106;2022-07-29T11:29:40;4;3;
45351;PMS7003;31086;51.702;-1.106;2022-07-29T11:32:18;2;2;
45351;PMS7003;31086;51.702;-1.106;2022-07-29T11:34:47;2;2;
45351;PMS7003;31086;51.702;-1.106;2022-07-29T11:37:17;2;1;
45351;PMS7003;31086;51.702;-1.106;2022-07-29T11:39:46;3;1;
45351;PMS7003;31086;51.702;-1.106;2022-07-29T11:42:43;5;3;
45351;PMS7003;31086;51.702;-1.106;2022-07-29T11:45:16;3;2;
45351;PMS7003;31086;51.702;-1.106;2022-07-29T11:47:49;3;3;
45351;PMS7003;31086;51.702;-1.106;2022-07-29T11:50:27;6;3;
45351;PMS7003;31086;51.702;-1.106;2022-07-29T11:52:57;3;2;
45351;PMS7003;31086;51.702;-1.106;2022-07-29T11:55:24;2;2;
45351;PMS7003;31086;51.702;-1.106;2022-07-29T11:57:52;3;2;
45351;PMS7003;31086;51.702;-1.106;2022-07-29T12:00:23;2;2;
45351;PMS7003;31086;51.702;-1.106;2022-07-29T12:02:53;2;1;
45351;PMS7003;31086;51.702;-1.106;2022-07-29T12:05:21;5;3;
45351;PMS7003;31086;51.702;-1.106;2022-07-29T12:08:04;3;3;
45351;PMS7003;31086;51.702;-1.106;2022-07-29T12:10:33;2;2;
45351;PMS7003;31086;51.702;-1.106;2022-07-29T12:13:00;5;5;
45351;PMS7003;31086;51.702;-1.106;2022-07-29T12:15:27;1;1;
45351;PMS7003;31086;51.702;-1.106;2022-07-29T12:17:54;2;1;
45351;PMS7003;31086;51.702;-1.106;2022-07-29T12:20:22;2;1;
45351;PMS7003;31086;51.702;-1.106;2022-07-29T12:22:51;3;3;
45351;PMS7003;31086;51.702;-1.106;2022-07-29T12:25:19;1;1;
45351;PMS7003;31086;51.702;-1.106;2022-07-29T12:27:47;5;3;
45351;PMS7003;31086;51.702;-1.106;2022-07-29T12:30:24;3;3;
45351;PMS7003;31086;51.702;-1.106;2022-07-29T12:33:09;5;3;
45351;PMS7003;31086;51.702;-1.106;2022-07-29T12:35:38;4;3;
45351;PMS7003;31086;51.702;-1.106;2022-07-29T12:38:06;2;2;
45351;PMS7003;31086;51.702;-1.106;2022-07-29T12:40:36;4;4;
45351;PMS7003;31086;51.702;-1.106;2022-07-29T12:43:07;4;2;
45351;PMS7003;31086;51.702;-1.106;2022-07-29T12:45:36;3;3;
45351;PMS7003;31086;51.702;-1.106;2022-07-29T12:48:04;2;2;
45351;PMS7003;31086;51.702;-1.106;2022-07-29T12:50:32;6;3;
45351;PMS7003;31086;51.702;-1.106;2022-07-29T12:53:08;4;3;
45351;PMS7003;31086;51.702;-1.106;2022-07-29T12:55:37;2;2;
45351;PMS7003;31086;51.702;-1.106;2022-07-29T12:58:06;6;5;
45351;PMS7003;31086;51.702;-1.106;2022-07-29T13:00:33;5;4;
45351;PMS7003;31086;51.702;-1.106;2022-07-29T13:03:00;4;4;
45351;PMS7003;31086;51.702;-1.106;2022-07-29T13:05:38;4;4;
45351;PMS7003;31086;51.702;-1.106;2022-07-29T13:08:11;3;3;
45351;PMS7003;31086;51.702;-1.106;2022-07-29T13:10:39;6;4;
45351;PMS7003;31086;51.702;-1.106;2022-07-29T13:13:08;3;2;
45351;PMS7003;31086;51.702;-1.106;2022-07-29T13:15:36;4;4;
45351;PMS7003;31086;51.702;-1.106;2022-07-29T13:18:05;5;4;
45351;PMS7003;31086;51.702;-1.106;2022-07-29T13:20:52;2;2;
45351;PMS7003;31086;51.702;-1.106;2022-07-29T13:23:19;2;1;
45351;PMS7003;31086;51.702;-1.106;2022-07-29T13:25:46;3;3;
45351;PMS7003;31086;51.702;-1.106;2022-07-29T13:28:14;1;1;
45351;PMS7003;31086;51.702;-1.106;2022-07-29T13:30:41;3;2;
45351;PMS7003;31086;51.702;-1.106;2022-07-29T13:33:09;5;3;
45351;PMS7003;31086;51.702;-1.106;2022-07-29T13:35:36;1;1;
45351;PMS7003;31086;51.702;-1.106;2022-07-29T13:38:03;3;3;
45351;PMS7003;31086;51.702;-1.106;2022-07-29T13:40:31;4;3;
45351;PMS7003;31086;51.702;-1.106;2022-07-29T13:42:58;3;2;
45351;PMS7003;31086;51.702;-1.106;2022-07-29T13:45:26;2;2;
45351;PMS7003;31086;51.702;-1.106;2022-07-29T13:47:53;3;3;
45351;PMS7003;31086;51.702;-1.106;2022-07-29T13:50:20;4532;4532;
45351;PMS7003;31086;51.702;-1.106;2022-07-29T13:52:48;2220;2220;
45351;PMS7003;31086;51.702;-1.106;2022-07-29T13:55:16;4;3;
45351;PMS7003;31086;51.702;-1.106;2022-07-29T13:57:43;2;2;
45351;PMS7003;31086;51.702;-1.106;2022-07-29T14:00:10;3;3;
45351;PMS7003;31086;51.702;-1.106;2022-07-29T14:02:38;4991;4991;
45351;PMS7003;31086;51.702;-1.106;2022-07-29T14:05:06;3;3;
45351;PMS7003;31086;51.702;-1.106;2022-07-29T14:07:35;3;3;
45351;PMS7003;31086;51.702;-1.106;2022-07-29T14:10:03;4;3;
45351;PMS7003;31086;51.702;-1.106;2022-07-29T14:12:31;5;3;
45351;PMS7003;31086;51.702;-1.106;2022-07-29T14:14:59;2;2;
45351;PMS7003;31086;51.702;-1.106;2022-07-29T14:17:26;3;3;
45351;PMS7003;31086;51.702;-1.106;2022-07-29T14:19:53;2;2;
45351;PMS7003;31086;51.702;-1.106;2022-07-29T14:22:21;3;2;
45351;PMS7003;31086;51.702;-1.106;2022-07-29T14:24:48;2;2;
45351;PMS7003;31086;51.702;-1.106;2022-07-29T14:27:15;3;3;
45351;PMS7003;31086;51.702;-1.106;2022-07-29T14:29:43;3;3;
45351;PMS7003;31086;51.702;-1.106;2022-07-29T14:32:10;4;4;
45351;PMS7003;31086;51.702;-1.106;2022-07-29T14:34:38;5044;5044;
45351;PMS7003;31086;51.702;-1.106;2022-07-29T14:37:06;5000;5000;
45351;PMS7003;31086;51.702;-1.106;2022-07-29T14:39:34;5017;5017;
45351;PMS7003;31086;51.702;-1.106;2022-07-29T14:42:02;5000;5000;
45351;PMS7003;31086;51.702;-1.106;2022-07-29T14:44:29;5000;5000;
45351;PMS7003;31086;51.702;-1.106;2022-07-29T14:46:56;5000;5000;
45351;PMS7003;31086;51.702;-1.106;2022-07-29T14:49:23;5000;5000;
45351;PMS7003;31086;51.702;-1.106;2022-07-29T14:51:51;5000;5000;
45351;PMS7003;31086;51.702;-1.106;2022-07-29T14:54:18;1752;1752;
45351;PMS7003;31086;51.702;-1.106;2022-07-29T14:56:46;5035;5035;
45351;PMS7003;31086;51.702;-1.106;2022-07-29T14:59:14;3;2;
45351;PMS7003;31086;51.702;-1.106;2022-07-29T15:01:41;2;2;
45351;PMS7003;31086;51.702;-1.106;2022-07-29T15:04:08;3;3;
45351;PMS7003;31086;51.702;-1.106;2022-07-29T15:06:35;1;1;
45351;PMS7003;31086;51.702;-1.106;2022-07-29T15:09:02;3;2;
45351;PMS7003;31086;51.702;-1.106;2022-07-29T15:11:29;4;3;
45351;PMS7003;31086;51.702;-1.106;2022-07-29T15:13:57;1;1;
45351;PMS7003;31086;51.702;-1.106;2022-07-29T15:16:24;5;3;
45351;PMS7003;31086;51.702;-1.106;2022-07-29T15:18:51;3;3;
45351;PMS7003;31086;51.702;-1.106;2022-07-29T15:21:18;4;3;
45351;PMS7003;31086;51.702;-1.106;2022-07-29T15:23:46;5000;5000;
45351;PMS7003;31086;51.702;-1.106;2022-07-29T15:26:13;4964;4964;
45351;PMS7003;31086;51.702;-1.106;2022-07-29T15:28:41;5000;5000;
45351;PMS7003;31086;51.702;-1.106;2022-07-29T15:31:09;3;3;
45351;PMS7003;31086;51.702;-1.106;2022-07-29T15:33:36;4;3;
45351;PMS7003;31086;51.702;-1.106;2022-07-29T15:36:03;3;3;
45351;PMS7003;31086;51.702;-1.106;2022-07-29T15:38:32;4;3;
45351;PMS7003;31086;51.702;-1.106;2022-07-29T15:40:59;3;2;
45351;PMS7003;31086;51.702;-1.106;2022-07-29T15:43:27;5;5;
45351;PMS7003;31086;51.702;-1.106;2022-07-29T15:45:54;3;3;
45351;PMS7003;31086;51.702;-1.106;2022-07-29T15:48:21;2;2;
45351;PMS7003;31086;51.702;-1.106;2022-07-29T15:50:48;3;3;
45351;PMS7003;31086;51.702;-1.106;2022-07-29T15:53:15;3;3;
45351;PMS7003;31086;51.702;-1.106;2022-07-29T15:55:42;4;3;
45351;PMS7003;31086;51.702;-1.106;2022-07-29T15:58:10;3;2;
45351;PMS7003;31086;51.702;-1.106;2022-07-29T16:00:37;3;3;
45351;PMS7003;31086;51.702;-1.106;2022-07-29T16:03:04;2;2;
45351;PMS7003;31086;51.702;-1.106;2022-07-29T16:05:32;3;3;
45351;PMS7003;31086;51.702;-1.106;2022-07-29T16:07:59;2;2;
45351;PMS7003;31086;51.702;-1.106;2022-07-29T16:10:26;2;2;
45351;PMS7003;31086;51.702;-1.106;2022-07-29T16:12:53;3;2;
45351;PMS7003;31086;51.702;-1.106;2022-07-29T16:15:20;4;3;
45351;PMS7003;31086;51.702;-1.106;2022-07-29T16:17:47;2;2;
45351;PMS7003;31086;51.702;-1.106;2022-07-29T16:20:15;3;2;
45351;PMS7003;31086;51.702;-1.106;2022-07-29T16:22:43;2;2;
45351;PMS7003;31086;51.702;-1.106;2022-07-29T16:25:10;4;2;
45351;PMS7003;31086;51.702;-1.106;2022-07-29T16:27:37;3;2;
45351;PMS7003;31086;51.702;-1.106;2022-07-29T16:30:05;4;3;
45351;PMS7003;31086;51.702;-1.106;2022-07-29T16:32:33;4;3;
45351;PMS7003;31086;51.702;-1.106;2022-07-29T16:35:00;3;2;
45351;PMS7003;31086;51.702;-1.106;2022-07-29T16:37:27;2;1;
45351;PMS7003;31086;51.702;-1.106;2022-07-29T16:39:54;2;2;
45351;PMS7003;31086;51.702;-1.106;2022-07-29T16:42:21;4;3;
45351;PMS7003;31086;51.702;-1.106;2022-07-29T16:44:48;4;3;